sensor_id;sensor_type;location;lat;lon;timestamp;P1;durP1;ratioP1;P2;durP2;ratioP2
31336;SDS011;22846;42.654;23.314;2022-12-07T00:01:03;17.35;;;11.80;;
31336;SDS011;22846;42.654;23.314;2022-12-07T00:03:40;17.15;;;11.80;;
31336;SDS011;22846;42.654;23.314;2022-12-07T00:06:07;15.70;;;11.40;;
31336;SDS011;22846;42.654;23.314;2022-12-07T00:08:34;17.92;;;11.45;;
31336;SDS011;22846;42.654;23.314;2022-12-07T00:11:02;17.75;;;12.05;;
31336;SDS011;22846;42.654;23.314;2022-12-07T00:13:33;17.17;;;11.07;;
31336;SDS011;22846;42.654;23.314;2022-12-07T00:16:01;16.63;;;11.20;;
31336;SDS011;22846;42.654;23.314;2022-12-07T00:18:29;15.02;;;10.65;;
31336;SDS011;22846;42.654;23.314;2022-12-07T00:21:01;17.63;;;11.43;;
31336;SDS011;22846;42.654;23.314;2022-12-07T00:23:28;15.35;;;11.00;;
31336;SDS011;22846;42.654;23.314;2022-12-07T00:25:54;16.95;;;11.70;;
31336;SDS011;22846;42.654;23.314;2022-12-07T00:28:19;16.70;;;10.60;;
31336;SDS011;22846;42.654;23.314;2022-12-07T00:30:45;18.38;;;11.40;;
31336;SDS011;22846;42.654;23.314;2022-12-07T00:33:10;14.65;;;10.85;;
31336;SDS011;22846;42.654;23.314;2022-12-07T00:35:36;15.02;;;10.85;;
31336;SDS011;22846;42.654;23.314;2022-12-07T00:38:01;15.27;;;11.00;;
31336;SDS011;22846;42.654;23.314;2022-12-07T00:40:26;15.40;;;10.65;;
31336;SDS011;22846;42.654;23.314;2022-12-07T00:42:52;15.98;;;11.45;;
31336;SDS011;22846;42.654;23.314;2022-12-07T00:45:17;13.63;;;10.35;;
31336;SDS011;22846;42.654;23.314;2022-12-07T00:47:43;15.18;;;10.85;;
31336;SDS011;22846;42.654;23.314;2022-12-07T00:50:08;15.50;;;11.02;;
31336;SDS011;22846;42.654;23.314;2022-12-07T00:52:33;15.75;;;11.15;;
31336;SDS011;22846;42.654;23.314;2022-12-07T00:54:59;15.32;;;10.63;;
31336;SDS011;22846;42.654;23.314;2022-12-07T00:57:24;15.80;;;11.10;;
31336;SDS011;22846;42.654;23.314;2022-12-07T00:59:50;15.95;;;10.80;;
31336;SDS011;22846;42.654;23.314;2022-12-07T01:02:15;15.35;;;11.02;;
31336;SDS011;22846;42.654;23.314;2022-12-07T01:04:40;15.45;;;10.27;;
31336;SDS011;22846;42.654;23.314;2022-12-07T01:07:06;15.45;;;10.48;;
31336;SDS011;22846;42.654;23.314;2022-12-07T01:09:31;15.18;;;10.85;;
31336;SDS011;22846;42.654;23.314;2022-12-07T01:11:57;15.82;;;10.80;;
31336;SDS011;22846;42.654;23.314;2022-12-07T01:14:22;14.70;;;10.75;;
31336;SDS011;22846;42.654;23.314;2022-12-07T01:16:48;14.68;;;10.70;;
31336;SDS011;22846;42.654;23.314;2022-12-07T01:19:13;15.07;;;10.32;;
31336;SDS011;22846;42.654;23.314;2022-12-07T01:21:39;15.48;;;10.65;;
31336;SDS011;22846;42.654;23.314;2022-12-07T01:24:05;17.08;;;11.30;;
31336;SDS011;22846;42.654;23.314;2022-12-07T01:26:34;16.17;;;10.68;;
31336;SDS011;22846;42.654;23.314;2022-12-07T01:28:59;13.65;;;9.85;;
31336;SDS011;22846;42.654;23.314;2022-12-07T01:31:26;14.35;;;10.75;;
31336;SDS011;22846;42.654;23.314;2022-12-07T01:33:53;13.65;;;10.07;;
31336;SDS011;22846;42.654;23.314;2022-12-07T01:36:22;14.50;;;10.07;;
31336;SDS011;22846;42.654;23.314;2022-12-07T01:38:48;15.02;;;10.90;;
31336;SDS011;22846;42.654;23.314;2022-12-07T01:41:18;13.27;;;9.68;;
31336;SDS011;22846;42.654;23.314;2022-12-07T01:46:32;13.45;;;10.30;;
31336;SDS011;22846;42.654;23.314;2022-12-07T01:48:57;13.77;;;10.63;;
31336;SDS011;22846;42.654;23.314;2022-12-07T01:51:24;16.95;;;11.02;;
31336;SDS011;22846;42.654;23.314;2022-12-07T01:53:51;15.00;;;10.55;;
31336;SDS011;22846;42.654;23.314;2022-12-07T01:56:18;15.05;;;10.55;;
31336;SDS011;22846;42.654;23.314;2022-12-07T01:58:46;14.02;;;10.00;;
31336;SDS011;22846;42.654;23.314;2022-12-07T02:01:12;15.07;;;10.93;;
31336;SDS011;22846;42.654;23.314;2022-12-07T02:03:39;13.73;;;9.45;;
31336;SDS011;22846;42.654;23.314;2022-12-07T02:06:07;15.50;;;10.50;;
31336;SDS011;22846;42.654;23.314;2022-12-07T02:08:34;16.25;;;10.60;;
31336;SDS011;22846;42.654;23.314;2022-12-07T02:11:03;14.05;;;9.75;;
31336;SDS011;22846;42.654;23.314;2022-12-07T02:13:32;13.05;;;9.65;;
31336;SDS011;22846;42.654;23.314;2022-12-07T02:18:38;14.85;;;10.65;;
31336;SDS011;22846;42.654;23.314;2022-12-07T02:29:33;14.07;;;9.95;;
31336;SDS011;22846;42.654;23.314;2022-12-07T02:32:08;15.27;;;10.73;;
31336;SDS011;22846;42.654;23.314;2022-12-07T02:39:59;13.13;;;10.27;;
31336;SDS011;22846;42.654;23.314;2022-12-07T02:42:32;12.90;;;10.40;;
31336;SDS011;22846;42.654;23.314;2022-12-07T02:45:03;14.50;;;10.38;;
31336;SDS011;22846;42.654;23.314;2022-12-07T02:47:31;14.13;;;10.23;;
31336;SDS011;22846;42.654;23.314;2022-12-07T02:49:59;15.00;;;10.25;;
31336;SDS011;22846;42.654;23.314;2022-12-07T02:52:27;15.48;;;10.10;;
31336;SDS011;22846;42.654;23.314;2022-12-07T02:54:52;15.82;;;10.52;;
31336;SDS011;22846;42.654;23.314;2022-12-07T03:00:06;15.55;;;10.32;;
31336;SDS011;22846;42.654;23.314;2022-12-07T03:16:17;13.13;;;9.90;;
31336;SDS011;22846;42.654;23.314;2022-12-07T03:18:57;14.25;;;10.43;;
31336;SDS011;22846;42.654;23.314;2022-12-07T03:21:31;13.35;;;10.13;;
31336;SDS011;22846;42.654;23.314;2022-12-07T03:24:02;14.93;;;10.48;;
31336;SDS011;22846;42.654;23.314;2022-12-07T03:26:32;13.02;;;9.80;;
31336;SDS011;22846;42.654;23.314;2022-12-07T03:29:03;15.65;;;10.35;;
31336;SDS011;22846;42.654;23.314;2022-12-07T03:31:33;13.00;;;9.60;;
31336;SDS011;22846;42.654;23.314;2022-12-07T03:39:17;13.45;;;9.85;;
31336;SDS011;22846;42.654;23.314;2022-12-07T03:41:43;14.73;;;10.50;;
31336;SDS011;22846;42.654;23.314;2022-12-07T03:44:09;13.60;;;9.63;;
31336;SDS011;22846;42.654;23.314;2022-12-07T03:52:02;13.32;;;10.07;;
31336;SDS011;22846;42.654;23.314;2022-12-07T03:54:36;16.30;;;11.23;;
31336;SDS011;22846;42.654;23.314;2022-12-07T03:57:03;12.63;;;9.90;;
31336;SDS011;22846;42.654;23.314;2022-12-07T03:59:30;13.45;;;9.93;;
31336;SDS011;22846;42.654;23.314;2022-12-07T04:01:56;13.95;;;10.10;;
31336;SDS011;22846;42.654;23.314;2022-12-07T04:04:26;13.55;;;9.85;;
31336;SDS011;22846;42.654;23.314;2022-12-07T04:06:53;12.70;;;9.07;;
31336;SDS011;22846;42.654;23.314;2022-12-07T04:09:18;13.50;;;10.35;;
31336;SDS011;22846;42.654;23.314;2022-12-07T04:11:43;13.75;;;10.10;;
31336;SDS011;22846;42.654;23.314;2022-12-07T04:14:09;12.88;;;9.65;;
31336;SDS011;22846;42.654;23.314;2022-12-07T04:16:44;12.38;;;9.32;;
31336;SDS011;22846;42.654;23.314;2022-12-07T04:19:10;12.32;;;9.25;;
31336;SDS011;22846;42.654;23.314;2022-12-07T04:21:36;12.90;;;9.50;;
31336;SDS011;22846;42.654;23.314;2022-12-07T04:24:02;11.48;;;9.07;;
31336;SDS011;22846;42.654;23.314;2022-12-07T04:26:28;12.85;;;9.43;;
31336;SDS011;22846;42.654;23.314;2022-12-07T04:28:53;12.40;;;9.43;;
31336;SDS011;22846;42.654;23.314;2022-12-07T04:31:18;14.15;;;9.55;;
31336;SDS011;22846;42.654;23.314;2022-12-07T04:33:44;11.10;;;8.60;;
31336;SDS011;22846;42.654;23.314;2022-12-07T04:36:09;12.18;;;8.73;;
31336;SDS011;22846;42.654;23.314;2022-12-07T04:38:34;12.02;;;9.10;;
31336;SDS011;22846;42.654;23.314;2022-12-07T04:41:07;11.75;;;8.65;;
31336;SDS011;22846;42.654;23.314;2022-12-07T04:43:33;13.38;;;9.88;;
31336;SDS011;22846;42.654;23.314;2022-12-07T04:45:59;13.13;;;9.52;;
31336;SDS011;22846;42.654;23.314;2022-12-07T04:48:24;11.98;;;9.30;;
31336;SDS011;22846;42.654;23.314;2022-12-07T04:50:50;13.73;;;8.93;;
31336;SDS011;22846;42.654;23.314;2022-12-07T04:53:15;11.48;;;8.55;;
31336;SDS011;22846;42.654;23.314;2022-12-07T04:55:41;12.23;;;9.05;;
31336;SDS011;22846;42.654;23.314;2022-12-07T04:58:06;14.80;;;8.75;;
31336;SDS011;22846;42.654;23.314;2022-12-07T05:00:32;13.73;;;8.25;;
31336;SDS011;22846;42.654;23.314;2022-12-07T05:02:57;14.07;;;8.63;;
31336;SDS011;22846;42.654;23.314;2022-12-07T05:05:22;21.65;;;13.00;;
31336;SDS011;22846;42.654;23.314;2022-12-07T05:07:49;30.40;;;15.93;;
31336;SDS011;22846;42.654;23.314;2022-12-07T05:10:14;36.97;;;16.35;;
31336;SDS011;22846;42.654;23.314;2022-12-07T05:12:40;30.08;;;15.30;;
31336;SDS011;22846;42.654;23.314;2022-12-07T05:15:07;27.30;;;14.00;;
31336;SDS011;22846;42.654;23.314;2022-12-07T05:17:33;26.70;;;11.80;;
31336;SDS011;22846;42.654;23.314;2022-12-07T05:19:58;32.78;;;14.23;;
31336;SDS011;22846;42.654;23.314;2022-12-07T05:22:24;32.22;;;13.25;;
31336;SDS011;22846;42.654;23.314;2022-12-07T05:24:53;32.45;;;14.20;;
31336;SDS011;22846;42.654;23.314;2022-12-07T05:27:19;27.58;;;12.52;;
31336;SDS011;22846;42.654;23.314;2022-12-07T05:29:44;26.17;;;12.38;;
31336;SDS011;22846;42.654;23.314;2022-12-07T05:32:10;25.27;;;11.73;;
31336;SDS011;22846;42.654;23.314;2022-12-07T05:34:35;28.05;;;11.18;;
31336;SDS011;22846;42.654;23.314;2022-12-07T05:37:01;22.52;;;11.07;;
31336;SDS011;22846;42.654;23.314;2022-12-07T05:39:26;17.63;;;10.07;;
31336;SDS011;22846;42.654;23.314;2022-12-07T05:41:51;22.15;;;10.30;;
31336;SDS011;22846;42.654;23.314;2022-12-07T05:44:35;18.85;;;10.32;;
31336;SDS011;22846;42.654;23.314;2022-12-07T05:47:01;18.05;;;10.38;;
31336;SDS011;22846;42.654;23.314;2022-12-07T05:49:26;19.95;;;10.32;;
31336;SDS011;22846;42.654;23.314;2022-12-07T05:51:52;21.98;;;10.50;;
31336;SDS011;22846;42.654;23.314;2022-12-07T05:54:17;19.00;;;9.82;;
31336;SDS011;22846;42.654;23.314;2022-12-07T05:56:42;25.10;;;10.18;;
31336;SDS011;22846;42.654;23.314;2022-12-07T05:59:08;18.38;;;9.88;;
31336;SDS011;22846;42.654;23.314;2022-12-07T06:01:54;17.02;;;9.70;;
31336;SDS011;22846;42.654;23.314;2022-12-07T06:04:25;20.10;;;10.57;;
31336;SDS011;22846;42.654;23.314;2022-12-07T06:06:52;16.52;;;9.52;;
31336;SDS011;22846;42.654;23.314;2022-12-07T06:09:18;16.60;;;9.30;;
31336;SDS011;22846;42.654;23.314;2022-12-07T06:11:45;17.08;;;9.85;;
31336;SDS011;22846;42.654;23.314;2022-12-07T06:14:28;41.25;;;23.08;;
31336;SDS011;22846;42.654;23.314;2022-12-07T06:16:54;44.97;;;27.00;;
31336;SDS011;22846;42.654;23.314;2022-12-07T06:19:19;47.70;;;29.52;;
31336;SDS011;22846;42.654;23.314;2022-12-07T06:21:45;42.35;;;26.08;;
31336;SDS011;22846;42.654;23.314;2022-12-07T06:24:13;40.30;;;24.77;;
31336;SDS011;22846;42.654;23.314;2022-12-07T06:26:40;32.00;;;20.13;;
31336;SDS011;22846;42.654;23.314;2022-12-07T06:29:06;28.75;;;17.08;;
31336;SDS011;22846;42.654;23.314;2022-12-07T06:31:32;27.95;;;17.00;;
31336;SDS011;22846;42.654;23.314;2022-12-07T06:33:58;27.70;;;16.80;;
31336;SDS011;22846;42.654;23.314;2022-12-07T06:36:28;30.95;;;17.90;;
31336;SDS011;22846;42.654;23.314;2022-12-07T06:38:54;29.20;;;17.58;;
31336;SDS011;22846;42.654;23.314;2022-12-07T06:41:20;24.95;;;16.80;;
31336;SDS011;22846;42.654;23.314;2022-12-07T06:43:45;30.20;;;17.10;;
31336;SDS011;22846;42.654;23.314;2022-12-07T06:46:11;21.60;;;14.35;;
31336;SDS011;22846;42.654;23.314;2022-12-07T06:48:36;22.00;;;14.50;;
31336;SDS011;22846;42.654;23.314;2022-12-07T06:51:02;21.35;;;13.82;;
31336;SDS011;22846;42.654;23.314;2022-12-07T06:53:27;21.65;;;14.38;;
31336;SDS011;22846;42.654;23.314;2022-12-07T06:55:53;18.63;;;12.73;;
31336;SDS011;22846;42.654;23.314;2022-12-07T06:58:18;22.40;;;13.52;;
31336;SDS011;22846;42.654;23.314;2022-12-07T07:00:44;19.88;;;13.10;;
31336;SDS011;22846;42.654;23.314;2022-12-07T07:03:10;21.13;;;12.80;;
31336;SDS011;22846;42.654;23.314;2022-12-07T07:05:36;19.75;;;12.70;;
31336;SDS011;22846;42.654;23.314;2022-12-07T07:08:01;16.00;;;11.68;;
31336;SDS011;22846;42.654;23.314;2022-12-07T07:10:28;16.30;;;11.13;;
31336;SDS011;22846;42.654;23.314;2022-12-07T07:12:54;17.02;;;11.10;;
31336;SDS011;22846;42.654;23.314;2022-12-07T07:15:19;14.38;;;10.50;;
31336;SDS011;22846;42.654;23.314;2022-12-07T07:17:45;16.73;;;10.93;;
31336;SDS011;22846;42.654;23.314;2022-12-07T07:20:10;15.60;;;10.68;;
31336;SDS011;22846;42.654;23.314;2022-12-07T07:22:36;14.63;;;10.65;;
31336;SDS011;22846;42.654;23.314;2022-12-07T07:25:01;15.40;;;9.95;;
31336;SDS011;22846;42.654;23.314;2022-12-07T07:27:27;13.38;;;9.18;;
31336;SDS011;22846;42.654;23.314;2022-12-07T07:29:52;12.95;;;9.93;;
31336;SDS011;22846;42.654;23.314;2022-12-07T07:32:18;15.48;;;9.77;;
31336;SDS011;22846;42.654;23.314;2022-12-07T07:34:44;13.35;;;8.95;;
31336;SDS011;22846;42.654;23.314;2022-12-07T07:37:09;14.95;;;9.27;;
31336;SDS011;22846;42.654;23.314;2022-12-07T07:39:37;49.08;;;31.48;;
31336;SDS011;22846;42.654;23.314;2022-12-07T07:42:03;70.35;;;45.50;;
31336;SDS011;22846;42.654;23.314;2022-12-07T07:44:28;62.55;;;41.83;;
31336;SDS011;22846;42.654;23.314;2022-12-07T07:46:54;60.60;;;40.90;;
31336;SDS011;22846;42.654;23.314;2022-12-07T07:49:19;58.72;;;39.33;;
31336;SDS011;22846;42.654;23.314;2022-12-07T07:51:45;56.03;;;37.17;;
31336;SDS011;22846;42.654;23.314;2022-12-07T07:54:10;53.33;;;35.83;;
31336;SDS011;22846;42.654;23.314;2022-12-07T07:56:36;49.63;;;34.83;;
31336;SDS011;22846;42.654;23.314;2022-12-07T07:59:01;49.88;;;33.72;;
31336;SDS011;22846;42.654;23.314;2022-12-07T08:01:28;48.40;;;33.42;;
31336;SDS011;22846;42.654;23.314;2022-12-07T08:03:53;48.35;;;31.85;;
31336;SDS011;22846;42.654;23.314;2022-12-07T08:06:19;44.15;;;31.65;;
31336;SDS011;22846;42.654;23.314;2022-12-07T08:08:44;43.17;;;29.48;;
31336;SDS011;22846;42.654;23.314;2022-12-07T08:11:09;40.47;;;28.35;;
31336;SDS011;22846;42.654;23.314;2022-12-07T08:13:35;40.22;;;28.08;;
31336;SDS011;22846;42.654;23.314;2022-12-07T08:16:05;41.20;;;27.95;;
31336;SDS011;22846;42.654;23.314;2022-12-07T08:18:36;37.88;;;26.80;;
31336;SDS011;22846;42.654;23.314;2022-12-07T08:21:03;38.20;;;26.30;;
31336;SDS011;22846;42.654;23.314;2022-12-07T08:23:30;37.97;;;26.38;;
31336;SDS011;22846;42.654;23.314;2022-12-07T08:26:02;37.67;;;25.40;;
31336;SDS011;22846;42.654;23.314;2022-12-07T08:28:29;37.15;;;24.63;;
31336;SDS011;22846;42.654;23.314;2022-12-07T08:30:58;31.95;;;22.98;;
31336;SDS011;22846;42.654;23.314;2022-12-07T08:33:28;34.35;;;23.75;;
31336;SDS011;22846;42.654;23.314;2022-12-07T08:35:53;32.85;;;22.08;;
31336;SDS011;22846;42.654;23.314;2022-12-07T08:38:19;31.55;;;22.48;;
31336;SDS011;22846;42.654;23.314;2022-12-07T08:40:53;33.35;;;21.55;;
31336;SDS011;22846;42.654;23.314;2022-12-07T08:43:22;31.17;;;21.38;;
31336;SDS011;22846;42.654;23.314;2022-12-07T08:45:49;29.25;;;20.92;;
31336;SDS011;22846;42.654;23.314;2022-12-07T08:48:28;30.17;;;20.23;;
31336;SDS011;22846;42.654;23.314;2022-12-07T08:50:54;29.45;;;20.60;;
31336;SDS011;22846;42.654;23.314;2022-12-07T08:53:19;28.80;;;19.98;;
31336;SDS011;22846;42.654;23.314;2022-12-07T08:55:45;27.40;;;19.38;;
31336;SDS011;22846;42.654;23.314;2022-12-07T08:58:11;25.67;;;17.73;;
31336;SDS011;22846;42.654;23.314;2022-12-07T09:00:37;25.27;;;18.05;;
31336;SDS011;22846;42.654;23.314;2022-12-07T09:03:02;23.38;;;17.58;;
31336;SDS011;22846;42.654;23.314;2022-12-07T09:05:28;26.30;;;17.77;;
31336;SDS011;22846;42.654;23.314;2022-12-07T09:07:54;24.52;;;17.25;;
31336;SDS011;22846;42.654;23.314;2022-12-07T09:10:22;24.42;;;16.70;;
31336;SDS011;22846;42.654;23.314;2022-12-07T09:12:48;24.38;;;16.60;;
31336;SDS011;22846;42.654;23.314;2022-12-07T09:15:14;22.10;;;15.80;;
31336;SDS011;22846;42.654;23.314;2022-12-07T09:17:39;43.30;;;29.77;;
31336;SDS011;22846;42.654;23.314;2022-12-07T09:20:05;68.15;;;49.63;;
31336;SDS011;22846;42.654;23.314;2022-12-07T09:22:31;66.80;;;46.83;;
31336;SDS011;22846;42.654;23.314;2022-12-07T09:24:57;65.45;;;45.63;;
31336;SDS011;22846;42.654;23.314;2022-12-07T09:27:24;59.53;;;42.83;;
31336;SDS011;22846;42.654;23.314;2022-12-07T09:29:50;59.78;;;41.60;;
31336;SDS011;22846;42.654;23.314;2022-12-07T09:32:15;57.47;;;40.47;;
31336;SDS011;22846;42.654;23.314;2022-12-07T09:34:41;56.72;;;39.80;;
31336;SDS011;22846;42.654;23.314;2022-12-07T09:37:06;48.70;;;36.00;;
31336;SDS011;22846;42.654;23.314;2022-12-07T09:39:32;49.70;;;35.88;;
31336;SDS011;22846;42.654;23.314;2022-12-07T09:41:57;47.97;;;33.67;;
31336;SDS011;22846;42.654;23.314;2022-12-07T09:44:25;46.22;;;33.70;;
31336;SDS011;22846;42.654;23.314;2022-12-07T09:46:52;44.75;;;32.45;;
31336;SDS011;22846;42.654;23.314;2022-12-07T09:49:19;46.83;;;32.25;;
31336;SDS011;22846;42.654;23.314;2022-12-07T09:51:59;40.33;;;29.55;;
31336;SDS011;22846;42.654;23.314;2022-12-07T09:54:46;39.40;;;28.08;;
31336;SDS011;22846;42.654;23.314;2022-12-07T09:57:13;40.20;;;26.92;;
31336;SDS011;22846;42.654;23.314;2022-12-07T09:59:39;36.95;;;26.85;;
31336;SDS011;22846;42.654;23.314;2022-12-07T10:05:06;37.25;;;25.77;;
31336;SDS011;22846;42.654;23.314;2022-12-07T10:07:37;32.97;;;23.92;;
31336;SDS011;22846;42.654;23.314;2022-12-07T10:10:04;33.50;;;23.48;;
31336;SDS011;22846;42.654;23.314;2022-12-07T10:26:29;31.65;;;21.75;;
31336;SDS011;22846;42.654;23.314;2022-12-07T10:29:16;76.18;;;46.55;;
31336;SDS011;22846;42.654;23.314;2022-12-07T10:31:55;87.60;;;57.97;;
31336;SDS011;22846;42.654;23.314;2022-12-07T10:34:33;79.72;;;53.72;;
31336;SDS011;22846;42.654;23.314;2022-12-07T10:39:47;70.65;;;46.67;;
31336;SDS011;22846;42.654;23.314;2022-12-07T10:42:20;71.70;;;47.60;;
31336;SDS011;22846;42.654;23.314;2022-12-07T10:45:06;69.35;;;45.80;;
31336;SDS011;22846;42.654;23.314;2022-12-07T10:47:46;63.28;;;44.00;;
31336;SDS011;22846;42.654;23.314;2022-12-07T10:53:16;56.42;;;39.25;;
31336;SDS011;22846;42.654;23.314;2022-12-07T10:58:31;51.83;;;35.72;;
31336;SDS011;22846;42.654;23.314;2022-12-07T11:12:03;140.27;;;84.80;;
31336;SDS011;22846;42.654;23.314;2022-12-07T11:18:03;75.00;;;47.45;;
31336;SDS011;22846;42.654;23.314;2022-12-07T11:24:10;50.67;;;33.05;;
31336;SDS011;22846;42.654;23.314;2022-12-07T11:37:33;33.72;;;23.00;;
31336;SDS011;22846;42.654;23.314;2022-12-07T11:40:05;34.83;;;23.13;;
31336;SDS011;22846;42.654;23.314;2022-12-07T11:42:41;30.15;;;21.70;;
31336;SDS011;22846;42.654;23.314;2022-12-07T11:48:24;30.55;;;21.30;;
31336;SDS011;22846;42.654;23.314;2022-12-07T11:50:47;27.17;;;19.95;;
31336;SDS011;22846;42.654;23.314;2022-12-07T11:53:19;28.02;;;19.40;;
31336;SDS011;22846;42.654;23.314;2022-12-07T11:55:52;28.90;;;20.13;;
31336;SDS011;22846;42.654;23.314;2022-12-07T12:03:48;24.40;;;18.47;;
31336;SDS011;22846;42.654;23.314;2022-12-07T12:06:16;26.23;;;18.52;;
31336;SDS011;22846;42.654;23.314;2022-12-07T12:24:59;21.05;;;15.43;;
31336;SDS011;22846;42.654;23.314;2022-12-07T12:27:35;21.67;;;15.27;;
31336;SDS011;22846;42.654;23.314;2022-12-07T12:30:04;22.80;;;16.15;;
31336;SDS011;22846;42.654;23.314;2022-12-07T12:32:42;22.60;;;16.02;;
31336;SDS011;22846;42.654;23.314;2022-12-07T12:38:20;22.95;;;15.23;;
31336;SDS011;22846;42.654;23.314;2022-12-07T12:41:24;20.73;;;14.75;;
31336;SDS011;22846;42.654;23.314;2022-12-07T12:44:00;19.83;;;15.15;;
31336;SDS011;22846;42.654;23.314;2022-12-07T12:51:57;21.02;;;14.20;;
31336;SDS011;22846;42.654;23.314;2022-12-07T12:54:26;18.13;;;13.10;;
31336;SDS011;22846;42.654;23.314;2022-12-07T13:02:22;21.00;;;13.38;;
31336;SDS011;22846;42.654;23.314;2022-12-07T13:17:59;16.98;;;12.35;;
31336;SDS011;22846;42.654;23.314;2022-12-07T13:28:47;15.02;;;11.20;;
31336;SDS011;22846;42.654;23.314;2022-12-07T13:34:00;14.75;;;10.40;;
31336;SDS011;22846;42.654;23.314;2022-12-07T13:36:29;13.75;;;10.10;;
31336;SDS011;22846;42.654;23.314;2022-12-07T13:39:09;14.60;;;10.70;;
31336;SDS011;22846;42.654;23.314;2022-12-07T13:41:43;16.25;;;10.80;;
31336;SDS011;22846;42.654;23.314;2022-12-07T13:44:13;15.52;;;10.23;;
31336;SDS011;22846;42.654;23.314;2022-12-07T13:49:38;13.00;;;10.07;;
31336;SDS011;22846;42.654;23.314;2022-12-07T13:57:24;14.38;;;10.95;;
31336;SDS011;22846;42.654;23.314;2022-12-07T13:59:51;44.10;;;29.60;;
31336;SDS011;22846;42.654;23.314;2022-12-07T14:02:30;80.35;;;54.25;;
31336;SDS011;22846;42.654;23.314;2022-12-07T14:16:05;40.42;;;28.45;;
31336;SDS011;22846;42.654;23.314;2022-12-07T14:18:46;44.53;;;27.80;;
31336;SDS011;22846;42.654;23.314;2022-12-07T14:23:38;34.08;;;24.25;;
31336;SDS011;22846;42.654;23.314;2022-12-07T14:26:08;30.63;;;21.77;;
31336;SDS011;22846;42.654;23.314;2022-12-07T14:28:38;30.20;;;22.02;;
31336;SDS011;22846;42.654;23.314;2022-12-07T14:31:08;31.00;;;22.02;;
31336;SDS011;22846;42.654;23.314;2022-12-07T14:33:36;30.43;;;21.73;;
31336;SDS011;22846;42.654;23.314;2022-12-07T14:36:02;29.65;;;21.38;;
31336;SDS011;22846;42.654;23.314;2022-12-07T14:38:28;26.63;;;19.35;;
31336;SDS011;22846;42.654;23.314;2022-12-07T14:40:54;27.52;;;19.88;;
31336;SDS011;22846;42.654;23.314;2022-12-07T14:43:40;25.77;;;18.40;;
31336;SDS011;22846;42.654;23.314;2022-12-07T14:46:06;23.88;;;17.75;;
31336;SDS011;22846;42.654;23.314;2022-12-07T14:48:31;25.63;;;18.20;;
31336;SDS011;22846;42.654;23.314;2022-12-07T14:50:57;24.05;;;17.17;;
31336;SDS011;22846;42.654;23.314;2022-12-07T14:53:24;25.20;;;18.17;;
31336;SDS011;22846;42.654;23.314;2022-12-07T14:55:54;23.60;;;16.77;;
31336;SDS011;22846;42.654;23.314;2022-12-07T14:58:20;22.85;;;16.73;;
31336;SDS011;22846;42.654;23.314;2022-12-07T15:00:45;22.33;;;15.85;;
31336;SDS011;22846;42.654;23.314;2022-12-07T15:03:12;21.35;;;15.85;;
31336;SDS011;22846;42.654;23.314;2022-12-07T15:05:38;21.90;;;16.42;;
31336;SDS011;22846;42.654;23.314;2022-12-07T15:08:04;21.75;;;15.20;;
31336;SDS011;22846;42.654;23.314;2022-12-07T15:10:31;21.33;;;15.18;;
31336;SDS011;22846;42.654;23.314;2022-12-07T15:12:58;21.63;;;14.68;;
31336;SDS011;22846;42.654;23.314;2022-12-07T15:15:45;20.65;;;14.48;;
31336;SDS011;22846;42.654;23.314;2022-12-07T15:18:11;20.50;;;14.65;;
31336;SDS011;22846;42.654;23.314;2022-12-07T15:20:37;19.20;;;13.30;;
31336;SDS011;22846;42.654;23.314;2022-12-07T15:23:02;18.98;;;14.00;;
31336;SDS011;22846;42.654;23.314;2022-12-07T15:25:28;20.00;;;13.52;;
31336;SDS011;22846;42.654;23.314;2022-12-07T15:27:53;20.15;;;13.18;;
31336;SDS011;22846;42.654;23.314;2022-12-07T15:30:18;17.40;;;13.23;;
31336;SDS011;22846;42.654;23.314;2022-12-07T15:32:44;17.45;;;12.45;;
31336;SDS011;22846;42.654;23.314;2022-12-07T15:35:14;17.55;;;12.85;;
31336;SDS011;22846;42.654;23.314;2022-12-07T15:37:40;20.08;;;12.95;;
31336;SDS011;22846;42.654;23.314;2022-12-07T15:40:05;17.27;;;13.10;;
31336;SDS011;22846;42.654;23.314;2022-12-07T15:42:31;15.65;;;11.75;;
31336;SDS011;22846;42.654;23.314;2022-12-07T15:44:57;16.55;;;12.52;;
31336;SDS011;22846;42.654;23.314;2022-12-07T15:47:29;16.48;;;12.25;;
31336;SDS011;22846;42.654;23.314;2022-12-07T15:50:01;16.63;;;11.88;;
31336;SDS011;22846;42.654;23.314;2022-12-07T15:52:26;17.48;;;12.18;;
31336;SDS011;22846;42.654;23.314;2022-12-07T15:54:52;20.42;;;11.23;;
31336;SDS011;22846;42.654;23.314;2022-12-07T15:57:19;19.73;;;11.80;;
31336;SDS011;22846;42.654;23.314;2022-12-07T15:59:45;22.60;;;11.77;;
31336;SDS011;22846;42.654;23.314;2022-12-07T16:02:11;24.90;;;11.25;;
31336;SDS011;22846;42.654;23.314;2022-12-07T16:04:36;18.25;;;10.45;;
31336;SDS011;22846;42.654;23.314;2022-12-07T16:07:02;18.05;;;10.80;;
31336;SDS011;22846;42.654;23.314;2022-12-07T16:09:28;18.15;;;10.98;;
31336;SDS011;22846;42.654;23.314;2022-12-07T16:11:53;17.58;;;10.57;;
31336;SDS011;22846;42.654;23.314;2022-12-07T16:14:19;13.88;;;10.20;;
31336;SDS011;22846;42.654;23.314;2022-12-07T16:16:44;14.10;;;9.73;;
31336;SDS011;22846;42.654;23.314;2022-12-07T16:19:10;17.35;;;9.68;;
31336;SDS011;22846;42.654;23.314;2022-12-07T16:21:36;13.75;;;9.93;;
31336;SDS011;22846;42.654;23.314;2022-12-07T16:24:02;17.08;;;10.27;;
31336;SDS011;22846;42.654;23.314;2022-12-07T16:26:28;17.30;;;10.30;;
31336;SDS011;22846;42.654;23.314;2022-12-07T16:28:54;23.92;;;10.50;;
31336;SDS011;22846;42.654;23.314;2022-12-07T16:31:21;23.33;;;11.60;;
31336;SDS011;22846;42.654;23.314;2022-12-07T16:33:48;24.25;;;10.77;;
31336;SDS011;22846;42.654;23.314;2022-12-07T16:36:14;27.27;;;11.88;;
31336;SDS011;22846;42.654;23.314;2022-12-07T16:38:41;20.05;;;11.18;;
31336;SDS011;22846;42.654;23.314;2022-12-07T16:41:07;20.35;;;10.45;;
31336;SDS011;22846;42.654;23.314;2022-12-07T16:43:33;17.77;;;11.38;;
31336;SDS011;22846;42.654;23.314;2022-12-07T16:45:59;19.40;;;10.68;;
31336;SDS011;22846;42.654;23.314;2022-12-07T16:48:25;21.40;;;10.82;;
31336;SDS011;22846;42.654;23.314;2022-12-07T16:50:50;17.50;;;9.85;;
31336;SDS011;22846;42.654;23.314;2022-12-07T16:53:18;24.77;;;11.55;;
31336;SDS011;22846;42.654;23.314;2022-12-07T16:55:45;19.60;;;11.50;;
31336;SDS011;22846;42.654;23.314;2022-12-07T16:58:11;22.48;;;12.75;;
31336;SDS011;22846;42.654;23.314;2022-12-07T17:00:38;64.25;;;40.20;;
31336;SDS011;22846;42.654;23.314;2022-12-07T17:03:04;91.28;;;58.13;;
31336;SDS011;22846;42.654;23.314;2022-12-07T17:05:29;75.40;;;47.13;;
31336;SDS011;22846;42.654;23.314;2022-12-07T17:07:55;59.60;;;40.58;;
31336;SDS011;22846;42.654;23.314;2022-12-07T17:10:21;55.35;;;36.85;;
31336;SDS011;22846;42.654;23.314;2022-12-07T17:12:48;50.78;;;33.05;;
31336;SDS011;22846;42.654;23.314;2022-12-07T17:15:14;45.75;;;31.40;;
31336;SDS011;22846;42.654;23.314;2022-12-07T17:17:43;44.20;;;29.52;;
31336;SDS011;22846;42.654;23.314;2022-12-07T17:20:10;41.08;;;28.10;;